createdAt,value
2023-01-10T00:04:28.955Z,50.86
2023-01-10T00:14:36.045Z,50.76
2023-01-10T00:24:43.456Z,50.70
2023-01-10T00:34:50.148Z,50.62
2023-01-10T00:44:57.578Z,50.56
2023-01-10T00:55:04.632Z,50.51
2023-01-10T01:05:11.376Z,50.47
2023-01-10T01:15:18.629Z,50.40
2023-01-10T01:25:25.602Z,50.30
2023-01-10T01:35:32.967Z,50.30
2023-01-10T01:45:39.459Z,50.25
2023-01-10T01:55:46.984Z,50.14
2023-01-10T02:05:53.897Z,50.14
2023-01-10T03:32:29.804Z,47.55
2023-01-10T03:42:28.921Z,48.72
2023-01-10T03:52:35.330Z,49.08
2023-01-10T04:02:42.121Z,49.27
2023-01-10T04:12:49.419Z,49.37
2023-01-10T04:22:56.296Z,49.43
2023-01-10T04:33:03.199Z,49.45
2023-01-10T04:43:10.715Z,49.50
2023-01-10T04:53:17.319Z,49.55
2023-01-10T05:03:24.374Z,49.56
2023-01-10T05:13:31.437Z,49.55
2023-01-10T05:23:38.693Z,49.67
2023-01-10T05:33:45.316Z,49.82
2023-01-10T05:43:52.524Z,49.94
2023-01-10T05:53:59.817Z,50.16
2023-01-10T06:04:07.039Z,50.63
2023-01-10T06:14:14.102Z,51.33
2023-01-10T06:24:21.197Z,51.70
2023-01-10T06:34:28.229Z,51.82
2023-01-10T06:44:35.255Z,51.88
2023-01-10T06:54:42.144Z,51.91
2023-01-10T07:04:48.900Z,51.87
2023-01-10T07:14:56.216Z,51.87
2023-01-10T07:25:04.053Z,51.86
2023-01-10T07:35:11.333Z,51.84
2023-01-10T07:45:18.012Z,51.89
2023-01-10T07:55:25.460Z,51.91
2023-01-10T08:05:32.679Z,51.89
2023-01-10T08:15:39.308Z,50.78
2023-01-10T08:25:46.442Z,51.20
2023-01-10T08:35:53.231Z,49.57
2023-01-10T08:46:00.392Z,49.67
2023-01-10T08:56:07.855Z,49.87
2023-01-10T09:06:15.751Z,49.87
2023-01-10T09:16:22.695Z,47.87
2023-01-10T09:26:29.814Z,48.74
2023-01-10T09:36:36.800Z,49.05
2023-01-10T09:46:43.848Z,48.23
2023-01-10T09:56:50.960Z,48.29
2023-01-10T10:06:58.028Z,47.69
2023-01-10T10:17:04.924Z,48.27
2023-01-10T10:27:11.997Z,49.10
2023-01-10T10:37:19.055Z,49.11
2023-01-10T10:47:25.661Z,49.24
2023-01-10T10:57:32.781Z,46.69
2023-01-10T11:07:40.121Z,48.50
2023-01-10T11:17:47.354Z,47.84
2023-01-10T11:27:55.537Z,48.15
2023-01-10T11:38:03.189Z,48.59
2023-01-10T11:48:10.283Z,48.82
2023-01-10T11:58:17.651Z,48.46
2023-01-10T12:08:25.447Z,49.34
2023-01-10T12:18:32.685Z,49.82
2023-01-10T12:28:40.095Z,49.86
2023-01-10T12:38:47.349Z,49.40
2023-01-10T12:48:54.719Z,48.16
2023-01-10T12:59:01.420Z,48.56
2023-01-10T13:09:08.602Z,48.72
2023-01-10T13:19:15.507Z,48.50
2023-01-10T13:29:22.353Z,48.23
2023-01-10T13:39:29.767Z,48.49
2023-01-10T13:49:36.786Z,46.62
2023-01-10T13:59:44.020Z,47.38
2023-01-10T14:09:50.637Z,47.69
2023-01-10T14:19:57.655Z,46.14
2023-01-10T14:30:04.076Z,45.89
2023-01-10T14:40:11.045Z,46.32
2023-01-10T14:50:17.751Z,46.93
2023-01-10T15:00:25.388Z,47.50
2023-01-10T15:10:32.162Z,48.07
2023-01-10T15:20:39.502Z,48.50
2023-01-10T15:30:47.384Z,48.00
2023-01-10T15:40:54.539Z,48.22
2023-01-10T15:51:01.454Z,49.02
2023-01-10T16:01:08.605Z,49.60
2023-01-10T16:11:15.490Z,49.79
2023-01-10T16:21:22.487Z,50.00
2023-01-10T16:31:29.588Z,50.26
2023-01-10T16:41:36.541Z,50.50
2023-01-10T16:51:42.876Z,50.63
2023-01-10T17:01:50.008Z,50.74
2023-01-10T17:11:56.858Z,50.73
2023-01-10T17:22:03.820Z,50.65
2023-01-10T17:32:11.125Z,50.56
2023-01-10T17:42:18.954Z,50.46
2023-01-10T17:52:25.893Z,50.34
2023-01-10T18:02:33.309Z,50.67
2023-01-10T18:12:40.867Z,51.41
2023-01-10T18:22:47.916Z,51.54
2023-01-10T18:32:55.118Z,51.47
2023-01-10T18:43:01.916Z,51.32
2023-01-10T18:53:08.204Z,51.19
2023-01-10T19:03:15.077Z,51.07
2023-01-10T19:13:22.603Z,50.88
2023-01-10T19:23:29.322Z,50.91
2023-01-10T19:33:36.431Z,50.95
2023-01-10T19:43:43.638Z,51.04
2023-01-10T19:53:50.576Z,50.96
2023-01-10T20:03:57.669Z,50.80
2023-01-10T20:14:04.667Z,50.50
2023-01-10T20:24:11.996Z,50.41
2023-01-10T20:34:19.395Z,50.52
2023-01-10T20:44:26.445Z,50.57
2023-01-10T20:54:33.748Z,50.53
2023-01-10T21:04:40.784Z,50.46
2023-01-10T21:14:47.798Z,50.33
2023-01-10T21:24:54.848Z,50.24
2023-01-10T21:35:01.764Z,50.06
2023-01-10T21:45:08.655Z,50.11
2023-01-10T21:55:16.283Z,50.12
2023-01-10T22:05:24.218Z,50.08
2023-01-10T22:15:31.144Z,49.98
2023-01-10T22:25:38.153Z,49.91
2023-01-10T22:35:44.993Z,49.90
2023-01-10T22:45:52.195Z,49.87
2023-01-10T22:55:58.994Z,49.79
2023-01-10T23:06:06.301Z,49.66
2023-01-10T23:16:13.299Z,49.46
2023-01-10T23:26:20.629Z,49.27
2023-01-10T23:36:28.097Z,49.15
2023-01-10T23:46:35.513Z,49.12
2023-01-10T23:56:42.443Z,49.10
